sensor_id;sensor_type;location;lat;lon;timestamp;temperature;humidity
68051;DHT22;54839;51.364;7.246;2023-10-09T00:01:40;15.50;99.90
68051;DHT22;54839;51.364;7.246;2023-10-09T00:04:10;15.50;99.90
68051;DHT22;54839;51.364;7.246;2023-10-09T00:06:36;15.60;99.90
68051;DHT22;54839;51.364;7.246;2023-10-09T00:09:06;15.70;99.90
68051;DHT22;54839;51.364;7.246;2023-10-09T00:11:52;15.60;99.90
68051;DHT22;54839;51.364;7.246;2023-10-09T00:14:26;15.90;99.90
68051;DHT22;54839;51.364;7.246;2023-10-09T00:16:52;15.90;99.90
68051;DHT22;54839;51.364;7.246;2023-10-09T00:19:36;15.80;99.90
68051;DHT22;54839;51.364;7.246;2023-10-09T00:22:02;15.90;99.90
68051;DHT22;54839;51.364;7.246;2023-10-09T00:24:42;15.80;99.90
68051;DHT22;54839;51.364;7.246;2023-10-09T00:27:11;15.80;99.90
68051;DHT22;54839;51.364;7.246;2023-10-09T00:29:38;15.90;99.90
68051;DHT22;54839;51.364;7.246;2023-10-09T00:32:13;15.80;99.90
68051;DHT22;54839;51.364;7.246;2023-10-09T00:34:48;15.70;99.90
68051;DHT22;54839;51.364;7.246;2023-10-09T00:37:16;15.60;99.90
68051;DHT22;54839;51.364;7.246;2023-10-09T00:39:45;15.60;99.90
68051;DHT22;54839;51.364;7.246;2023-10-09T00:42:14;15.60;99.90
68051;DHT22;54839;51.364;7.246;2023-10-09T00:44:51;15.70;99.90
68051;DHT22;54839;51.364;7.246;2023-10-09T00:47:17;15.60;99.90
68051;DHT22;54839;51.364;7.246;2023-10-09T00:49:51;15.50;99.90
68051;DHT22;54839;51.364;7.246;2023-10-09T00:52:24;15.50;99.90
68051;DHT22;54839;51.364;7.246;2023-10-09T00:54:58;15.50;99.90
68051;DHT22;54839;51.364;7.246;2023-10-09T00:57:28;15.70;99.90
68051;DHT22;54839;51.364;7.246;2023-10-09T00:59:54;15.60;99.90
68051;DHT22;54839;51.364;7.246;2023-10-09T01:02:26;15.70;99.90
68051;DHT22;54839;51.364;7.246;2023-10-09T01:05:02;15.70;99.90
68051;DHT22;54839;51.364;7.246;2023-10-09T01:07:37;15.70;99.90
68051;DHT22;54839;51.364;7.246;2023-10-09T01:10:06;15.80;99.90
68051;DHT22;54839;51.364;7.246;2023-10-09T01:12:35;15.80;99.90
68051;DHT22;54839;51.364;7.246;2023-10-09T01:15:07;15.70;99.90
68051;DHT22;54839;51.364;7.246;2023-10-09T01:17:33;15.70;99.90
68051;DHT22;54839;51.364;7.246;2023-10-09T01:20:02;15.70;99.90
68051;DHT22;54839;51.364;7.246;2023-10-09T01:22:39;15.70;99.90
68051;DHT22;54839;51.364;7.246;2023-10-09T01:25:07;15.80;99.90
68051;DHT22;54839;51.364;7.246;2023-10-09T01:27:33;15.70;99.90
68051;DHT22;54839;51.364;7.246;2023-10-09T01:29:59;15.60;99.90
68051;DHT22;54839;51.364;7.246;2023-10-09T01:32:25;15.80;99.90
68051;DHT22;54839;51.364;7.246;2023-10-09T01:34:52;15.70;99.90
68051;DHT22;54839;51.364;7.246;2023-10-09T01:37:20;15.60;99.90
68051;DHT22;54839;51.364;7.246;2023-10-09T01:39:55;15.60;99.90
68051;DHT22;54839;51.364;7.246;2023-10-09T01:42:25;15.50;99.90
68051;DHT22;54839;51.364;7.246;2023-10-09T01:45:00;15.50;99.90
68051;DHT22;54839;51.364;7.246;2023-10-09T01:47:42;15.60;99.90
68051;DHT22;54839;51.364;7.246;2023-10-09T01:50:16;15.50;99.90
68051;DHT22;54839;51.364;7.246;2023-10-09T01:52:48;15.40;99.90
68051;DHT22;54839;51.364;7.246;2023-10-09T01:55:13;15.30;99.90
68051;DHT22;54839;51.364;7.246;2023-10-09T01:57:55;15.20;99.90
68051;DHT22;54839;51.364;7.246;2023-10-09T02:00:23;15.10;99.90
68051;DHT22;54839;51.364;7.246;2023-10-09T02:02:53;15.20;99.90
68051;DHT22;54839;51.364;7.246;2023-10-09T02:05:19;15.10;99.90
68051;DHT22;54839;51.364;7.246;2023-10-09T02:07:44;15.20;99.90
68051;DHT22;54839;51.364;7.246;2023-10-09T02:10:20;15.10;99.90
68051;DHT22;54839;51.364;7.246;2023-10-09T02:13:03;15.00;99.90
68051;DHT22;54839;51.364;7.246;2023-10-09T02:15:34;15.00;99.90
68051;DHT22;54839;51.364;7.246;2023-10-09T02:18:26;15.00;99.90
68051;DHT22;54839;51.364;7.246;2023-10-09T02:23:28;15.00;99.90
68051;DHT22;54839;51.364;7.246;2023-10-09T02:26:16;14.90;99.90
68051;DHT22;54839;51.364;7.246;2023-10-09T02:31:25;15.00;99.90
68051;DHT22;54839;51.364;7.246;2023-10-09T02:33:53;15.00;99.90
68051;DHT22;54839;51.364;7.246;2023-10-09T02:36:22;15.00;99.90
68051;DHT22;54839;51.364;7.246;2023-10-09T02:38:47;15.00;99.90
68051;DHT22;54839;51.364;7.246;2023-10-09T02:41:15;15.20;99.90
68051;DHT22;54839;51.364;7.246;2023-10-09T02:43:41;15.20;99.90
68051;DHT22;54839;51.364;7.246;2023-10-09T02:46:14;15.20;99.90
68051;DHT22;54839;51.364;7.246;2023-10-09T02:48:44;15.30;99.90
68051;DHT22;54839;51.364;7.246;2023-10-09T02:51:17;15.40;99.90
68051;DHT22;54839;51.364;7.246;2023-10-09T02:54:03;15.30;99.90
68051;DHT22;54839;51.364;7.246;2023-10-09T02:56:50;15.40;99.90
68051;DHT22;54839;51.364;7.246;2023-10-09T02:59:34;15.40;99.90
68051;DHT22;54839;51.364;7.246;2023-10-09T03:02:02;15.40;99.90
68051;DHT22;54839;51.364;7.246;2023-10-09T03:04:28;15.50;99.90
68051;DHT22;54839;51.364;7.246;2023-10-09T03:06:55;15.50;99.90
68051;DHT22;54839;51.364;7.246;2023-10-09T03:09:23;15.50;99.90
68051;DHT22;54839;51.364;7.246;2023-10-09T03:12:00;15.40;99.90
68051;DHT22;54839;51.364;7.246;2023-10-09T03:14:28;15.50;99.90
68051;DHT22;54839;51.364;7.246;2023-10-09T03:16:57;15.50;99.90
68051;DHT22;54839;51.364;7.246;2023-10-09T03:19:31;15.50;99.90
68051;DHT22;54839;51.364;7.246;2023-10-09T03:22:03;15.40;99.90
68051;DHT22;54839;51.364;7.246;2023-10-09T03:24:28;15.50;99.90
68051;DHT22;54839;51.364;7.246;2023-10-09T03:26:56;15.60;99.90
68051;DHT22;54839;51.364;7.246;2023-10-09T03:29:23;15.50;99.90
68051;DHT22;54839;51.364;7.246;2023-10-09T03:31:48;15.50;99.90
68051;DHT22;54839;51.364;7.246;2023-10-09T03:34:17;15.70;99.90
68051;DHT22;54839;51.364;7.246;2023-10-09T03:36:46;15.70;99.90
68051;DHT22;54839;51.364;7.246;2023-10-09T03:39:13;15.60;99.90
68051;DHT22;54839;51.364;7.246;2023-10-09T03:41:57;15.70;99.90
68051;DHT22;54839;51.364;7.246;2023-10-09T03:44:30;15.60;99.90
68051;DHT22;54839;51.364;7.246;2023-10-09T03:46:56;15.60;99.90
68051;DHT22;54839;51.364;7.246;2023-10-09T03:49:21;15.60;99.90
68051;DHT22;54839;51.364;7.246;2023-10-09T03:51:52;15.70;99.90
68051;DHT22;54839;51.364;7.246;2023-10-09T03:54:18;15.80;99.90
68051;DHT22;54839;51.364;7.246;2023-10-09T03:56:48;15.80;99.90
68051;DHT22;54839;51.364;7.246;2023-10-09T03:59:20;15.70;99.90
68051;DHT22;54839;51.364;7.246;2023-10-09T04:01:49;15.80;99.90
68051;DHT22;54839;51.364;7.246;2023-10-09T04:04:18;15.80;99.90
68051;DHT22;54839;51.364;7.246;2023-10-09T04:06:48;15.80;99.90
68051;DHT22;54839;51.364;7.246;2023-10-09T04:09:14;15.80;99.90
68051;DHT22;54839;51.364;7.246;2023-10-09T04:11:55;15.80;99.90
68051;DHT22;54839;51.364;7.246;2023-10-09T04:14:45;15.80;99.90
68051;DHT22;54839;51.364;7.246;2023-10-09T04:17:26;15.80;99.90
68051;DHT22;54839;51.364;7.246;2023-10-09T04:19:55;15.90;99.90
68051;DHT22;54839;51.364;7.246;2023-10-09T04:22:40;15.90;99.90
68051;DHT22;54839;51.364;7.246;2023-10-09T04:25:16;15.90;99.90
68051;DHT22;54839;51.364;7.246;2023-10-09T04:27:59;15.90;99.90
68051;DHT22;54839;51.364;7.246;2023-10-09T04:30:39;15.90;99.90
68051;DHT22;54839;51.364;7.246;2023-10-09T04:33:12;15.80;99.90
68051;DHT22;54839;51.364;7.246;2023-10-09T04:36:14;15.90;99.90
68051;DHT22;54839;51.364;7.246;2023-10-09T04:38:53;15.90;99.90
68051;DHT22;54839;51.364;7.246;2023-10-09T04:41:41;16.00;99.90
68051;DHT22;54839;51.364;7.246;2023-10-09T04:44:07;15.80;99.90
68051;DHT22;54839;51.364;7.246;2023-10-09T04:46:49;15.90;99.90
68051;DHT22;54839;51.364;7.246;2023-10-09T04:49:34;15.90;99.90
68051;DHT22;54839;51.364;7.246;2023-10-09T04:52:15;15.90;99.90
68051;DHT22;54839;51.364;7.246;2023-10-09T04:55:04;15.80;99.90
68051;DHT22;54839;51.364;7.246;2023-10-09T04:57:34;15.80;99.90
68051;DHT22;54839;51.364;7.246;2023-10-09T05:00:05;15.80;99.90
68051;DHT22;54839;51.364;7.246;2023-10-09T05:02:56;15.70;99.90
68051;DHT22;54839;51.364;7.246;2023-10-09T05:05:32;15.80;99.90
68051;DHT22;54839;51.364;7.246;2023-10-09T05:08:10;15.70;99.90
68051;DHT22;54839;51.364;7.246;2023-10-09T05:16:08;15.80;99.90
68051;DHT22;54839;51.364;7.246;2023-10-09T05:18:54;15.70;99.90
68051;DHT22;54839;51.364;7.246;2023-10-09T05:21:32;15.70;99.90
68051;DHT22;54839;51.364;7.246;2023-10-09T05:23:59;15.80;99.90
68051;DHT22;54839;51.364;7.246;2023-10-09T05:26:37;15.80;99.90
68051;DHT22;54839;51.364;7.246;2023-10-09T05:29:21;15.80;99.90
68051;DHT22;54839;51.364;7.246;2023-10-09T05:32:00;15.80;99.90
68051;DHT22;54839;51.364;7.246;2023-10-09T05:34:32;15.80;99.90
68051;DHT22;54839;51.364;7.246;2023-10-09T05:37:05;15.80;99.90
68051;DHT22;54839;51.364;7.246;2023-10-09T05:39:57;15.70;99.90
68051;DHT22;54839;51.364;7.246;2023-10-09T05:42:26;15.70;99.90
68051;DHT22;54839;51.364;7.246;2023-10-09T05:45:16;15.70;99.90
68051;DHT22;54839;51.364;7.246;2023-10-09T05:47:49;15.70;99.90
68051;DHT22;54839;51.364;7.246;2023-10-09T05:50:50;15.70;99.90
68051;DHT22;54839;51.364;7.246;2023-10-09T05:53:34;15.70;99.90
68051;DHT22;54839;51.364;7.246;2023-10-09T05:56:09;15.80;99.90
68051;DHT22;54839;51.364;7.246;2023-10-09T05:58:53;15.70;99.90
68051;DHT22;54839;51.364;7.246;2023-10-09T06:01:37;15.70;99.90
68051;DHT22;54839;51.364;7.246;2023-10-09T06:04:21;15.60;99.90
68051;DHT22;54839;51.364;7.246;2023-10-09T06:07:01;15.70;99.90
68051;DHT22;54839;51.364;7.246;2023-10-09T06:09:39;15.70;99.90
68051;DHT22;54839;51.364;7.246;2023-10-09T06:12:22;15.70;99.90
68051;DHT22;54839;51.364;7.246;2023-10-09T06:15:15;15.60;99.90
68051;DHT22;54839;51.364;7.246;2023-10-09T06:18:06;15.70;99.90
68051;DHT22;54839;51.364;7.246;2023-10-09T06:20:51;15.70;99.90
68051;DHT22;54839;51.364;7.246;2023-10-09T06:23:49;15.70;99.90
68051;DHT22;54839;51.364;7.246;2023-10-09T06:26:33;15.70;99.90
68051;DHT22;54839;51.364;7.246;2023-10-09T06:28:58;15.80;99.90
68051;DHT22;54839;51.364;7.246;2023-10-09T06:31:39;15.80;99.90
68051;DHT22;54839;51.364;7.246;2023-10-09T06:34:41;15.80;99.90
68051;DHT22;54839;51.364;7.246;2023-10-09T06:37:10;15.90;99.90
68051;DHT22;54839;51.364;7.246;2023-10-09T06:40:00;15.90;99.90
68051;DHT22;54839;51.364;7.246;2023-10-09T06:43:01;16.00;99.90
68051;DHT22;54839;51.364;7.246;2023-10-09T06:45:35;15.90;99.90
68051;DHT22;54839;51.364;7.246;2023-10-09T06:48:09;15.80;99.90
68051;DHT22;54839;51.364;7.246;2023-10-09T06:50:53;16.00;99.90
68051;DHT22;54839;51.364;7.246;2023-10-09T06:53:23;15.90;99.90
68051;DHT22;54839;51.364;7.246;2023-10-09T06:56:15;16.10;99.90
68051;DHT22;54839;51.364;7.246;2023-10-09T06:58:55;16.10;99.90
68051;DHT22;54839;51.364;7.246;2023-10-09T07:01:23;16.10;99.90
68051;DHT22;54839;51.364;7.246;2023-10-09T07:04:05;16.10;99.90
68051;DHT22;54839;51.364;7.246;2023-10-09T07:06:50;16.10;99.90
68051;DHT22;54839;51.364;7.246;2023-10-09T07:09:22;16.20;99.90
68051;DHT22;54839;51.364;7.246;2023-10-09T07:11:49;16.20;99.90
68051;DHT22;54839;51.364;7.246;2023-10-09T07:14:24;16.10;99.90
68051;DHT22;54839;51.364;7.246;2023-10-09T07:19:29;16.40;99.90
68051;DHT22;54839;51.364;7.246;2023-10-09T07:21:58;16.50;99.90
68051;DHT22;54839;51.364;7.246;2023-10-09T07:24:31;16.50;99.90
68051;DHT22;54839;51.364;7.246;2023-10-09T07:27:09;16.50;99.90
68051;DHT22;54839;51.364;7.246;2023-10-09T07:29:38;16.60;99.90
68051;DHT22;54839;51.364;7.246;2023-10-09T07:32:19;16.50;99.90
68051;DHT22;54839;51.364;7.246;2023-10-09T07:34:50;16.50;99.90
68051;DHT22;54839;51.364;7.246;2023-10-09T07:37:23;16.50;99.90
68051;DHT22;54839;51.364;7.246;2023-10-09T07:39:52;16.50;99.90
68051;DHT22;54839;51.364;7.246;2023-10-09T07:42:24;16.40;99.90
68051;DHT22;54839;51.364;7.246;2023-10-09T07:45:02;16.60;99.90
68051;DHT22;54839;51.364;7.246;2023-10-09T07:47:51;16.60;99.90
68051;DHT22;54839;51.364;7.246;2023-10-09T07:50:26;16.80;99.90
68051;DHT22;54839;51.364;7.246;2023-10-09T07:53:05;16.80;99.90
68051;DHT22;54839;51.364;7.246;2023-10-09T07:55:56;16.80;99.90
68051;DHT22;54839;51.364;7.246;2023-10-09T07:58:32;16.90;99.90
68051;DHT22;54839;51.364;7.246;2023-10-09T08:00:58;17.00;99.90
68051;DHT22;54839;51.364;7.246;2023-10-09T08:03:36;17.10;99.90
68051;DHT22;54839;51.364;7.246;2023-10-09T08:06:03;17.10;99.90
68051;DHT22;54839;51.364;7.246;2023-10-09T08:08:47;17.10;99.90
68051;DHT22;54839;51.364;7.246;2023-10-09T08:11:30;16.80;99.90
68051;DHT22;54839;51.364;7.246;2023-10-09T08:14:12;16.80;99.90
68051;DHT22;54839;51.364;7.246;2023-10-09T08:16:56;16.70;99.90
68051;DHT22;54839;51.364;7.246;2023-10-09T08:19:42;17.00;99.90
68051;DHT22;54839;51.364;7.246;2023-10-09T08:22:24;17.10;99.90
68051;DHT22;54839;51.364;7.246;2023-10-09T08:24:51;17.10;99.90
68051;DHT22;54839;51.364;7.246;2023-10-09T08:27:23;17.20;99.90
68051;DHT22;54839;51.364;7.246;2023-10-09T08:29:58;17.20;99.90
68051;DHT22;54839;51.364;7.246;2023-10-09T08:32:43;17.30;99.90
68051;DHT22;54839;51.364;7.246;2023-10-09T08:35:26;17.20;99.90
68051;DHT22;54839;51.364;7.246;2023-10-09T08:38:01;17.30;99.90
68051;DHT22;54839;51.364;7.246;2023-10-09T08:40:37;17.20;99.90
68051;DHT22;54839;51.364;7.246;2023-10-09T08:43:10;17.20;99.90
68051;DHT22;54839;51.364;7.246;2023-10-09T08:45:41;17.10;99.90
68051;DHT22;54839;51.364;7.246;2023-10-09T08:48:10;17.00;99.90
68051;DHT22;54839;51.364;7.246;2023-10-09T08:50:48;16.90;99.90
68051;DHT22;54839;51.364;7.246;2023-10-09T08:53:16;16.90;99.90
68051;DHT22;54839;51.364;7.246;2023-10-09T08:55:42;16.90;99.90
68051;DHT22;54839;51.364;7.246;2023-10-09T08:58:09;16.80;99.90
68051;DHT22;54839;51.364;7.246;2023-10-09T09:00:56;16.70;99.90
68051;DHT22;54839;51.364;7.246;2023-10-09T09:03:24;16.80;99.90
68051;DHT22;54839;51.364;7.246;2023-10-09T09:05:59;16.80;99.90
68051;DHT22;54839;51.364;7.246;2023-10-09T09:08:30;16.90;99.90
68051;DHT22;54839;51.364;7.246;2023-10-09T09:10:59;17.00;99.90
68051;DHT22;54839;51.364;7.246;2023-10-09T09:13:31;17.20;99.90
68051;DHT22;54839;51.364;7.246;2023-10-09T09:15:58;17.40;99.90
68051;DHT22;54839;51.364;7.246;2023-10-09T09:18:23;17.50;99.90
68051;DHT22;54839;51.364;7.246;2023-10-09T09:20:58;17.70;99.90
68051;DHT22;54839;51.364;7.246;2023-10-09T09:23:23;17.80;99.90
68051;DHT22;54839;51.364;7.246;2023-10-09T09:25:49;17.70;99.90
68051;DHT22;54839;51.364;7.246;2023-10-09T09:28:24;17.90;99.90
68051;DHT22;54839;51.364;7.246;2023-10-09T09:30:52;18.10;99.90
68051;DHT22;54839;51.364;7.246;2023-10-09T09:33:20;18.50;99.90
68051;DHT22;54839;51.364;7.246;2023-10-09T09:35:56;18.40;99.90
68051;DHT22;54839;51.364;7.246;2023-10-09T09:38:32;18.40;99.90
68051;DHT22;54839;51.364;7.246;2023-10-09T09:41:16;18.70;99.90
68051;DHT22;54839;51.364;7.246;2023-10-09T09:43:56;18.90;99.90
68051;DHT22;54839;51.364;7.246;2023-10-09T09:46:23;19.10;99.90
68051;DHT22;54839;51.364;7.246;2023-10-09T09:49:03;18.80;99.90
68051;DHT22;54839;51.364;7.246;2023-10-09T09:51:31;18.90;99.90
68051;DHT22;54839;51.364;7.246;2023-10-09T09:53:57;18.80;99.90
68051;DHT22;54839;51.364;7.246;2023-10-09T09:56:26;18.70;99.90
68051;DHT22;54839;51.364;7.246;2023-10-09T09:58:53;18.80;99.90
68051;DHT22;54839;51.364;7.246;2023-10-09T10:01:26;18.90;99.90
68051;DHT22;54839;51.364;7.246;2023-10-09T10:04:15;18.90;99.90
68051;DHT22;54839;51.364;7.246;2023-10-09T10:06:47;19.00;99.90
68051;DHT22;54839;51.364;7.246;2023-10-09T10:09:37;18.90;99.90
68051;DHT22;54839;51.364;7.246;2023-10-09T10:12:09;19.00;99.90
68051;DHT22;54839;51.364;7.246;2023-10-09T10:14:54;19.20;99.90
68051;DHT22;54839;51.364;7.246;2023-10-09T10:20:24;19.50;99.90
68051;DHT22;54839;51.364;7.246;2023-10-09T10:22:51;19.40;99.90
68051;DHT22;54839;51.364;7.246;2023-10-09T10:25:37;19.40;99.90
68051;DHT22;54839;51.364;7.246;2023-10-09T10:31:01;19.30;99.90
68051;DHT22;54839;51.364;7.246;2023-10-09T10:36:20;19.40;99.90
68051;DHT22;54839;51.364;7.246;2023-10-09T10:39:07;19.50;99.90
68051;DHT22;54839;51.364;7.246;2023-10-09T10:41:57;19.30;99.90
68051;DHT22;54839;51.364;7.246;2023-10-09T10:44:30;19.20;99.90
68051;DHT22;54839;51.364;7.246;2023-10-09T10:46:59;19.60;99.90
68051;DHT22;54839;51.364;7.246;2023-10-09T10:49:24;19.50;99.90
68051;DHT22;54839;51.364;7.246;2023-10-09T10:52:02;19.30;99.90
68051;DHT22;54839;51.364;7.246;2023-10-09T10:54:40;19.30;99.90
68051;DHT22;54839;51.364;7.246;2023-10-09T10:57:19;19.60;99.90
68051;DHT22;54839;51.364;7.246;2023-10-09T10:59:45;19.60;99.90
68051;DHT22;54839;51.364;7.246;2023-10-09T11:02:12;19.60;99.90
68051;DHT22;54839;51.364;7.246;2023-10-09T11:04:37;19.50;99.90
68051;DHT22;54839;51.364;7.246;2023-10-09T11:07:04;19.30;99.90
68051;DHT22;54839;51.364;7.246;2023-10-09T11:09:57;19.60;99.90
68051;DHT22;54839;51.364;7.246;2023-10-09T11:12:24;19.50;99.90
68051;DHT22;54839;51.364;7.246;2023-10-09T11:14:50;19.50;99.90
68051;DHT22;54839;51.364;7.246;2023-10-09T11:17:35;19.80;99.90
68051;DHT22;54839;51.364;7.246;2023-10-09T11:20:05;19.80;99.90
68051;DHT22;54839;51.364;7.246;2023-10-09T11:22:51;19.70;99.90
68051;DHT22;54839;51.364;7.246;2023-10-09T11:25:37;19.70;99.90
68051;DHT22;54839;51.364;7.246;2023-10-09T11:28:22;20.00;99.90
68051;DHT22;54839;51.364;7.246;2023-10-09T11:31:14;19.90;99.90
68051;DHT22;54839;51.364;7.246;2023-10-09T11:33:50;20.10;99.90
68051;DHT22;54839;51.364;7.246;2023-10-09T11:36:22;20.20;99.90
68051;DHT22;54839;51.364;7.246;2023-10-09T11:38:58;20.30;99.90
68051;DHT22;54839;51.364;7.246;2023-10-09T11:41:43;20.20;99.90
68051;DHT22;54839;51.364;7.246;2023-10-09T11:44:10;20.20;99.90
68051;DHT22;54839;51.364;7.246;2023-10-09T11:47:11;20.20;99.90
68051;DHT22;54839;51.364;7.246;2023-10-09T11:49:55;20.40;99.90
68051;DHT22;54839;51.364;7.246;2023-10-09T11:52:24;20.40;99.90
68051;DHT22;54839;51.364;7.246;2023-10-09T11:55:11;20.50;99.90
68051;DHT22;54839;51.364;7.246;2023-10-09T11:57:40;20.30;99.90
68051;DHT22;54839;51.364;7.246;2023-10-09T12:00:06;20.20;99.90
68051;DHT22;54839;51.364;7.246;2023-10-09T12:03:01;20.30;99.90
68051;DHT22;54839;51.364;7.246;2023-10-09T12:05:32;20.20;99.90
68051;DHT22;54839;51.364;7.246;2023-10-09T12:07:57;20.40;99.90
68051;DHT22;54839;51.364;7.246;2023-10-09T12:10:24;20.20;99.90
68051;DHT22;54839;51.364;7.246;2023-10-09T12:12:55;20.10;99.90
68051;DHT22;54839;51.364;7.246;2023-10-09T12:15:24;20.10;99.90
68051;DHT22;54839;51.364;7.246;2023-10-09T12:17:50;20.10;99.90
68051;DHT22;54839;51.364;7.246;2023-10-09T12:20:19;20.10;99.90
68051;DHT22;54839;51.364;7.246;2023-10-09T12:23:02;20.00;99.90
68051;DHT22;54839;51.364;7.246;2023-10-09T12:25:32;19.80;99.90
68051;DHT22;54839;51.364;7.246;2023-10-09T12:27:59;19.90;99.90
68051;DHT22;54839;51.364;7.246;2023-10-09T12:30:28;20.20;99.90
68051;DHT22;54839;51.364;7.246;2023-10-09T12:32:58;20.10;99.90
68051;DHT22;54839;51.364;7.246;2023-10-09T12:35:24;20.20;99.90
68051;DHT22;54839;51.364;7.246;2023-10-09T12:37:51;20.40;99.90
68051;DHT22;54839;51.364;7.246;2023-10-09T12:40:17;20.50;99.90
68051;DHT22;54839;51.364;7.246;2023-10-09T12:42:52;20.60;99.90
68051;DHT22;54839;51.364;7.246;2023-10-09T12:45:21;20.60;99.90
68051;DHT22;54839;51.364;7.246;2023-10-09T12:47:58;20.60;99.90
68051;DHT22;54839;51.364;7.246;2023-10-09T12:50:27;20.50;99.90
68051;DHT22;54839;51.364;7.246;2023-10-09T12:53:00;20.90;99.90
68051;DHT22;54839;51.364;7.246;2023-10-09T12:55:38;20.90;99.90
68051;DHT22;54839;51.364;7.246;2023-10-09T12:58:11;21.10;99.90
68051;DHT22;54839;51.364;7.246;2023-10-09T13:00:41;20.60;99.90
68051;DHT22;54839;51.364;7.246;2023-10-09T13:03:14;20.60;99.90
68051;DHT22;54839;51.364;7.246;2023-10-09T13:05:53;20.40;99.90
68051;DHT22;54839;51.364;7.246;2023-10-09T13:08:26;20.70;99.90
68051;DHT22;54839;51.364;7.246;2023-10-09T13:11:08;20.70;99.90
68051;DHT22;54839;51.364;7.246;2023-10-09T13:13:40;21.00;99.90
68051;DHT22;54839;51.364;7.246;2023-10-09T13:16:11;20.80;99.90
68051;DHT22;54839;51.364;7.246;2023-10-09T13:18:40;20.80;99.90
68051;DHT22;54839;51.364;7.246;2023-10-09T13:21:07;21.00;99.90
68051;DHT22;54839;51.364;7.246;2023-10-09T13:23:33;21.10;99.90
68051;DHT22;54839;51.364;7.246;2023-10-09T13:26:06;20.90;99.90
68051;DHT22;54839;51.364;7.246;2023-10-09T13:28:46;21.20;99.90
68051;DHT22;54839;51.364;7.246;2023-10-09T13:31:13;21.30;99.90
68051;DHT22;54839;51.364;7.246;2023-10-09T13:33:44;21.70;99.90
68051;DHT22;54839;51.364;7.246;2023-10-09T13:36:13;21.50;99.90
68051;DHT22;54839;51.364;7.246;2023-10-09T13:38:43;22.20;99.90
68051;DHT22;54839;51.364;7.246;2023-10-09T13:41:09;23.80;99.90
68051;DHT22;54839;51.364;7.246;2023-10-09T13:43:39;25.50;99.90
68051;DHT22;54839;51.364;7.246;2023-10-09T13:46:09;26.50;99.90
68051;DHT22;54839;51.364;7.246;2023-10-09T13:48:37;25.20;99.90
68051;DHT22;54839;51.364;7.246;2023-10-09T13:51:07;23.80;99.90
68051;DHT22;54839;51.364;7.246;2023-10-09T13:53:34;23.40;99.90
68051;DHT22;54839;51.364;7.246;2023-10-09T13:56:17;23.50;99.90
68051;DHT22;54839;51.364;7.246;2023-10-09T13:58:52;23.70;99.90
68051;DHT22;54839;51.364;7.246;2023-10-09T14:01:20;23.40;99.90
68051;DHT22;54839;51.364;7.246;2023-10-09T14:03:53;22.40;99.90
68051;DHT22;54839;51.364;7.246;2023-10-09T14:06:19;21.60;99.90
68051;DHT22;54839;51.364;7.246;2023-10-09T14:09:01;21.50;99.90
68051;DHT22;54839;51.364;7.246;2023-10-09T14:11:30;21.20;99.90
68051;DHT22;54839;51.364;7.246;2023-10-09T14:13:56;20.90;99.90
68051;DHT22;54839;51.364;7.246;2023-10-09T14:16:22;20.80;99.90
68051;DHT22;54839;51.364;7.246;2023-10-09T14:18:54;20.50;99.90
68051;DHT22;54839;51.364;7.246;2023-10-09T14:21:25;20.50;99.90
68051;DHT22;54839;51.364;7.246;2023-10-09T14:23:52;20.70;99.90
68051;DHT22;54839;51.364;7.246;2023-10-09T14:26:23;20.60;99.90
68051;DHT22;54839;51.364;7.246;2023-10-09T14:28:48;20.60;99.90
68051;DHT22;54839;51.364;7.246;2023-10-09T14:31:15;20.30;99.90
68051;DHT22;54839;51.364;7.246;2023-10-09T14:33:48;20.00;99.90
68051;DHT22;54839;51.364;7.246;2023-10-09T14:36:17;20.20;99.90
68051;DHT22;54839;51.364;7.246;2023-10-09T14:38:43;20.10;99.90
68051;DHT22;54839;51.364;7.246;2023-10-09T14:41:12;20.00;99.90
68051;DHT22;54839;51.364;7.246;2023-10-09T14:43:38;20.00;99.90
68051;DHT22;54839;51.364;7.246;2023-10-09T14:46:04;19.80;99.90
68051;DHT22;54839;51.364;7.246;2023-10-09T14:48:37;20.00;99.90
68051;DHT22;54839;51.364;7.246;2023-10-09T14:51:03;19.90;99.90
68051;DHT22;54839;51.364;7.246;2023-10-09T14:53:33;19.90;99.90
68051;DHT22;54839;51.364;7.246;2023-10-09T14:56:00;19.80;99.90
68051;DHT22;54839;51.364;7.246;2023-10-09T14:58:27;19.80;99.90
68051;DHT22;54839;51.364;7.246;2023-10-09T15:00:55;19.80;99.90
68051;DHT22;54839;51.364;7.246;2023-10-09T15:03:21;19.60;99.90
68051;DHT22;54839;51.364;7.246;2023-10-09T15:05:47;19.70;99.90
68051;DHT22;54839;51.364;7.246;2023-10-09T15:08:13;19.80;99.90
68051;DHT22;54839;51.364;7.246;2023-10-09T15:10:49;19.80;99.90
68051;DHT22;54839;51.364;7.246;2023-10-09T15:13:17;19.80;99.90
68051;DHT22;54839;51.364;7.246;2023-10-09T15:15:43;19.80;99.90
68051;DHT22;54839;51.364;7.246;2023-10-09T15:18:10;19.90;99.90
68051;DHT22;54839;51.364;7.246;2023-10-09T15:20:39;19.80;99.90
68051;DHT22;54839;51.364;7.246;2023-10-09T15:23:07;19.70;99.90
68051;DHT22;54839;51.364;7.246;2023-10-09T15:25:32;19.70;99.90
68051;DHT22;54839;51.364;7.246;2023-10-09T15:28:00;19.70;99.90
68051;DHT22;54839;51.364;7.246;2023-10-09T15:30:25;19.70;99.90
68051;DHT22;54839;51.364;7.246;2023-10-09T15:32:52;19.50;99.90
68051;DHT22;54839;51.364;7.246;2023-10-09T15:35:18;19.50;99.90
68051;DHT22;54839;51.364;7.246;2023-10-09T15:37:44;19.40;99.90
68051;DHT22;54839;51.364;7.246;2023-10-09T15:40:11;19.30;99.90
68051;DHT22;54839;51.364;7.246;2023-10-09T15:42:44;19.20;99.90
68051;DHT22;54839;51.364;7.246;2023-10-09T15:45:18;19.30;99.90
68051;DHT22;54839;51.364;7.246;2023-10-09T15:47:49;19.20;99.90
68051;DHT22;54839;51.364;7.246;2023-10-09T15:50:16;19.00;99.90
68051;DHT22;54839;51.364;7.246;2023-10-09T15:52:42;19.10;99.90
68051;DHT22;54839;51.364;7.246;2023-10-09T15:55:08;19.10;99.90
68051;DHT22;54839;51.364;7.246;2023-10-09T15:57:40;19.00;99.90
68051;DHT22;54839;51.364;7.246;2023-10-09T16:00:07;18.90;99.90
68051;DHT22;54839;51.364;7.246;2023-10-09T16:02:40;18.90;99.90
68051;DHT22;54839;51.364;7.246;2023-10-09T16:05:07;18.90;99.90
68051;DHT22;54839;51.364;7.246;2023-10-09T16:07:35;19.00;99.90
68051;DHT22;54839;51.364;7.246;2023-10-09T16:10:03;19.00;99.90
68051;DHT22;54839;51.364;7.246;2023-10-09T16:12:31;19.00;99.90
68051;DHT22;54839;51.364;7.246;2023-10-09T16:14:57;18.90;99.90
68051;DHT22;54839;51.364;7.246;2023-10-09T16:17:22;18.90;99.90
68051;DHT22;54839;51.364;7.246;2023-10-09T16:19:50;18.90;99.90
68051;DHT22;54839;51.364;7.246;2023-10-09T16:22:16;19.00;99.90
68051;DHT22;54839;51.364;7.246;2023-10-09T16:24:43;19.00;99.90
68051;DHT22;54839;51.364;7.246;2023-10-09T16:27:10;19.10;99.90
68051;DHT22;54839;51.364;7.246;2023-10-09T16:29:36;18.90;99.90
68051;DHT22;54839;51.364;7.246;2023-10-09T16:32:01;18.90;99.90